createdAt,value
2019-03-12T00:01:36.170Z,15.90
2019-03-12T00:02:36.376Z,16.50
2019-03-12T00:03:36.143Z,15.00
2019-03-12T00:04:36.135Z,15.60
2019-03-12T00:05:36.122Z,14.00
2019-03-12T00:46:10.356Z,12.50
2019-03-12T00:47:10.345Z,13.70
2019-03-12T01:25:30.561Z,11.50
2019-03-12T01:26:30.451Z,13.50
2019-03-12T01:27:30.437Z,13.30
2019-03-12T01:28:30.444Z,15.20
2019-03-12T01:29:30.413Z,15.10
2019-03-12T01:30:30.409Z,13.40
2019-03-12T01:31:30.391Z,16.60
2019-03-12T01:32:30.382Z,13.00
2019-03-12T01:33:30.370Z,13.40
2019-03-12T01:34:30.359Z,15.30
2019-03-12T01:35:30.345Z,16.30
2019-03-12T01:36:30.339Z,13.40
2019-03-12T01:37:30.339Z,15.90
2019-03-12T01:38:30.314Z,16.50
2019-03-12T01:39:30.301Z,14.10
2019-03-12T01:40:30.295Z,17.70
2019-03-12T01:41:30.280Z,14.60
2019-03-12T01:42:30.284Z,11.70
2019-03-12T01:43:30.262Z,13.60
2019-03-12T01:44:30.250Z,14.80
2019-03-12T01:46:57.723Z,13.60
2019-03-12T01:47:57.714Z,10.50
2019-03-12T01:48:57.698Z,13.40
2019-03-12T01:49:57.690Z,16.50
2019-03-12T01:50:57.677Z,15.30
2019-03-12T01:51:57.668Z,11.10
2019-03-12T01:52:57.655Z,13.70
2019-03-12T01:53:57.652Z,13.70
2019-03-12T01:54:57.634Z,15.00
2019-03-12T01:55:57.627Z,18.70
2019-03-12T01:56:57.613Z,15.00
2019-03-12T01:57:57.605Z,11.80
2019-03-12T01:58:57.591Z,15.60
2019-03-12T01:59:57.582Z,16.20
2019-03-12T02:00:57.569Z,11.50
2019-03-12T02:01:57.559Z,10.60
2019-03-12T02:02:57.547Z,14.30
2019-03-12T02:03:57.538Z,10.70
2019-03-12T02:04:57.526Z,13.00
2019-03-12T02:05:57.516Z,15.50
2019-03-12T02:06:57.689Z,14.40
2019-03-12T02:07:57.495Z,13.90
2019-03-12T02:08:57.482Z,13.60
2019-03-12T02:09:57.473Z,13.10
2019-03-12T02:10:57.461Z,12.50
2019-03-12T02:11:57.452Z,15.80
2019-03-12T02:12:57.438Z,15.20
2019-03-12T02:13:57.429Z,12.00
2019-03-12T02:14:57.417Z,14.90
2019-03-12T02:15:57.407Z,10.50
2019-03-12T02:16:57.397Z,15.60
2019-03-12T02:17:57.636Z,11.80
2019-03-12T02:18:57.400Z,12.80
2019-03-12T02:19:57.363Z,13.50
2019-03-12T02:20:57.354Z,15.80
2019-03-12T02:21:57.341Z,9.60
2019-03-12T02:22:57.331Z,10.80
2019-03-12T02:23:57.327Z,14.80
2019-03-12T02:24:57.307Z,15.50
2019-03-12T02:25:57.299Z,11.30
2019-03-12T02:26:57.284Z,11.40
2019-03-12T02:27:57.276Z,11.50
2019-03-12T02:28:57.263Z,10.40
2019-03-12T02:29:57.260Z,15.80
2019-03-12T02:30:57.247Z,11.70
2019-03-12T02:31:57.233Z,12.60
2019-03-12T02:32:57.243Z,15.10
2019-03-12T02:33:57.225Z,14.70
2019-03-12T02:37:27.876Z,17.50
2019-03-12T02:38:27.865Z,13.50
2019-03-12T02:39:27.865Z,13.10
2019-03-12T02:40:27.845Z,13.40
2019-03-12T02:41:27.837Z,15.20
2019-03-12T02:42:27.822Z,13.60
2019-03-12T02:43:27.808Z,15.90
2019-03-12T02:45:15.212Z,13.40
2019-03-12T02:46:15.205Z,15.10
2019-03-12T02:47:15.220Z,15.90
2019-03-12T02:48:15.188Z,14.90
2019-03-12T02:49:15.185Z,16.10
2019-03-12T02:50:15.160Z,17.50
2019-03-12T02:51:15.145Z,17.90
2019-03-12T02:52:15.136Z,14.60
2019-03-12T02:53:15.124Z,14.10
2019-03-12T02:54:15.112Z,15.10
2019-03-12T02:55:15.101Z,15.60
2019-03-12T02:56:15.091Z,15.50
2019-03-12T02:57:15.079Z,18.80
2019-03-12T02:58:15.069Z,21.10
2019-03-12T02:59:15.056Z,16.80
2019-03-12T03:00:15.048Z,17.30
2019-03-12T03:01:15.035Z,15.20
2019-03-12T03:02:15.024Z,18.90
2019-03-12T03:04:15.007Z,16.10
2019-03-12T03:05:15.013Z,16.00
2019-03-12T03:11:11.444Z,15.90
2019-03-12T03:12:11.449Z,17.30
2019-03-12T03:13:11.429Z,16.50
2019-03-12T03:14:11.410Z,16.20
2019-03-12T03:15:11.402Z,16.20
2019-03-12T03:16:11.398Z,20.70
2019-03-12T03:17:11.394Z,13.50
2019-03-12T03:19:31.458Z,16.30
2019-03-12T03:20:31.459Z,16.80
2019-03-12T03:22:28.797Z,15.20
2019-03-12T03:23:28.787Z,16.50
2019-03-12T03:24:28.774Z,16.00
2019-03-12T03:25:28.766Z,16.80
2019-03-12T03:26:28.753Z,19.30
2019-03-12T03:27:29.530Z,17.90
2019-03-12T03:28:28.729Z,13.40
2019-03-12T03:29:28.727Z,22.70
2019-03-12T03:30:32.542Z,14.50
2019-03-12T03:31:28.702Z,18.50
2019-03-12T03:32:28.701Z,16.60
2019-03-12T03:47:57.179Z,23.40
2019-03-12T03:48:57.172Z,19.10
2019-03-12T03:49:57.159Z,24.90
2019-03-12T03:50:57.301Z,23.00
2019-03-12T03:51:57.152Z,22.00
2019-03-12T03:52:57.124Z,21.80
2019-03-12T03:53:57.112Z,22.10
2019-03-12T03:54:57.101Z,20.50
2019-03-12T03:55:57.089Z,22.90
2019-03-12T03:56:57.079Z,19.30
2019-03-12T03:57:57.066Z,18.30
2019-03-12T03:58:57.055Z,22.80
2019-03-12T03:59:57.042Z,19.10
2019-03-12T04:00:57.032Z,23.30
2019-03-12T04:01:57.018Z,21.30
2019-03-12T04:02:57.014Z,25.20
2019-03-12T04:04:54.440Z,26.00
2019-03-12T04:05:54.422Z,24.50
2019-03-12T04:06:54.405Z,22.10
2019-03-12T04:09:01.848Z,24.90
2019-03-12T04:10:01.850Z,22.50
2019-03-12T04:11:44.226Z,22.70
2019-03-12T04:15:29.050Z,22.70
2019-03-12T04:16:32.469Z,21.80
2019-03-12T04:25:04.480Z,25.00
2019-03-12T04:26:04.467Z,31.20
2019-03-12T04:27:04.467Z,25.20
2019-03-12T04:28:04.451Z,26.50
2019-03-12T04:29:04.432Z,22.60
2019-03-12T04:30:04.419Z,18.50
2019-03-12T04:50:01.977Z,17.40
2019-03-12T04:51:01.866Z,19.10
2019-03-12T05:19:45.798Z,16.50
2019-03-12T05:20:43.160Z,16.50
2019-03-12T05:21:44.956Z,18.90
2019-03-12T05:23:30.548Z,14.80
2019-03-12T05:24:30.535Z,13.70
2019-03-12T05:25:30.532Z,19.30
2019-03-12T05:26:30.512Z,17.60
2019-03-12T05:27:30.499Z,17.20
2019-03-12T05:28:30.488Z,18.00
2019-03-12T05:29:30.474Z,19.50
2019-03-12T05:30:30.469Z,17.40
2019-03-12T08:58:53.922Z,10.70
2019-03-12T08:59:53.917Z,10.50
2019-03-12T09:00:53.904Z,9.80
2019-03-12T09:01:53.898Z,11.90
2019-03-12T09:02:53.887Z,9.20
2019-03-12T09:03:53.880Z,6.90
2019-03-12T09:04:53.870Z,9.20
2019-03-12T09:05:53.868Z,9.30
2019-03-12T09:06:53.853Z,12.80
2019-03-12T09:07:53.850Z,15.60
2019-03-12T09:08:53.849Z,13.20
2019-03-12T09:09:53.830Z,11.80
2019-03-12T09:10:53.820Z,9.40
2019-03-12T09:11:53.812Z,12.80
2019-03-12T09:12:53.803Z,9.70
2019-03-12T09:13:53.796Z,11.70
2019-03-12T09:21:03.899Z,8.90
2019-03-12T09:24:26.697Z,11.80
2019-03-12T09:25:26.688Z,9.40
2019-03-12T09:26:26.675Z,9.40
2019-03-12T09:32:25.711Z,9.60
2019-03-12T09:33:25.698Z,6.80
2019-03-12T09:34:25.686Z,6.40
2019-03-12T09:35:25.682Z,8.90
2019-03-12T09:36:25.671Z,9.70
2019-03-12T09:37:25.665Z,5.60
2019-03-12T09:38:25.654Z,10.40
2019-03-12T09:39:25.649Z,9.20
2019-03-12T09:40:25.641Z,8.60
2019-03-12T09:41:25.634Z,4.30
2019-03-12T09:42:25.623Z,7.00
2019-03-12T09:43:25.617Z,8.60
2019-03-12T09:44:25.607Z,11.00
2019-03-12T09:49:27.581Z,7.90
2019-03-12T09:50:26.109Z,5.20
2019-03-12T09:51:26.097Z,7.90
2019-03-12T09:52:26.095Z,8.70
2019-03-12T09:53:26.081Z,8.20
2019-03-12T09:54:26.076Z,10.10
2019-03-12T09:55:26.068Z,3.90
2019-03-12T10:02:42.566Z,5.80
2019-03-12T12:30:30.486Z,2.70
2019-03-12T12:31:30.480Z,3.20
2019-03-12T12:32:30.472Z,5.00
2019-03-12T13:33:36.511Z,3.10
2019-03-12T13:34:36.505Z,3.10
2019-03-12T13:35:36.497Z,3.70
2019-03-12T13:39:02.225Z,2.90
2019-03-12T13:40:02.217Z,3.60
2019-03-12T13:41:03.448Z,2.60
2019-03-12T13:42:02.233Z,4.00
2019-03-12T13:43:02.152Z,3.30
2019-03-12T13:44:02.151Z,4.10
2019-03-12T13:45:02.383Z,3.10
2019-03-12T13:46:02.135Z,2.80
2019-03-12T13:47:02.124Z,2.50
2019-03-12T13:48:02.752Z,4.20
2019-03-12T13:49:02.112Z,4.30
2019-03-12T13:50:02.424Z,4.40
2019-03-12T13:51:02.202Z,2.40
2019-03-12T13:52:02.097Z,3.40
2019-03-12T13:53:02.198Z,3.40
2019-03-12T13:54:02.085Z,2.00
2019-03-12T13:55:02.677Z,1.50
2019-03-12T13:56:02.164Z,4.20
2019-03-12T13:57:02.070Z,3.10
2019-03-12T13:58:02.070Z,3.20
2019-03-12T13:59:02.054Z,2.20
2019-03-12T14:04:21.023Z,2.00
2019-03-12T14:05:21.019Z,4.00
2019-03-12T14:06:21.012Z,2.30
2019-03-12T14:07:21.008Z,1.70
2019-03-12T14:08:21.005Z,2.40
2019-03-12T14:16:08.326Z,1.60
2019-03-12T14:17:08.686Z,1.80
2019-03-12T14:29:52.770Z,3.30
2019-03-12T14:30:52.765Z,6.00
2019-03-12T14:31:52.758Z,3.00
2019-03-12T14:32:52.753Z,4.80
2019-03-12T14:33:52.745Z,2.80
2019-03-12T14:34:52.739Z,3.50
2019-03-12T14:35:52.730Z,2.40
2019-03-12T14:36:52.726Z,2.70
2019-03-12T14:37:52.721Z,3.50
2019-03-12T14:38:52.715Z,5.00
2019-03-12T14:39:52.706Z,3.00
2019-03-12T14:40:52.703Z,2.90
2019-03-12T14:41:52.694Z,3.50
2019-03-12T14:42:52.708Z,3.90
2019-03-12T14:43:52.682Z,2.30
2019-03-12T14:44:52.679Z,3.90
2019-03-12T14:45:52.672Z,3.80
2019-03-12T14:46:52.667Z,5.70
2019-03-12T14:47:52.658Z,4.20
2019-03-12T14:48:52.675Z,3.50
2019-03-12T14:49:52.647Z,2.50
2019-03-12T14:50:52.643Z,5.00
2019-03-12T14:51:52.635Z,4.80
2019-03-12T14:52:52.631Z,4.70
2019-03-12T14:53:52.633Z,5.80
2019-03-12T14:54:52.620Z,2.90
2019-03-12T14:55:52.813Z,2.80
2019-03-12T14:56:52.640Z,5.30
2019-03-12T14:57:52.602Z,3.60
2019-03-12T14:58:52.597Z,2.90
2019-03-12T14:59:52.589Z,2.20
2019-03-12T15:01:52.578Z,5.90
2019-03-12T15:02:52.570Z,5.90
2019-03-12T15:03:52.567Z,5.20
2019-03-12T15:04:52.564Z,2.10
2019-03-12T17:39:44.513Z,2.90
2019-03-12T17:40:44.456Z,3.40
2019-03-12T17:55:14.832Z,3.60
2019-03-12T17:56:14.827Z,2.40
2019-03-12T17:57:14.819Z,2.80
2019-03-12T17:58:14.814Z,2.20
2019-03-12T17:59:14.805Z,2.50
